createdAt,value
2017-08-04T00:00:41.956Z,21.5
2017-08-04T00:01:45.117Z,21.5
2017-08-04T00:02:47.569Z,21.5
2017-08-04T00:03:50.034Z,21.5
2017-08-04T00:04:53.156Z,21.5
2017-08-04T00:05:55.634Z,21.4
2017-08-04T00:06:58.066Z,21.4
2017-08-04T00:08:00.528Z,21.4
2017-08-04T00:09:03.665Z,21.4
2017-08-04T00:10:06.484Z,21.4
2017-08-04T00:11:09.288Z,21.4
2017-08-04T00:12:11.743Z,21.4
2017-08-04T00:13:14.196Z,21.3
2017-08-04T00:14:16.992Z,21.3
2017-08-04T00:15:20.120Z,21.3
2017-08-04T00:16:22.923Z,21.3
2017-08-04T00:17:25.714Z,21.3
2017-08-04T00:18:28.181Z,21.3
2017-08-04T00:19:30.974Z,21.2
2017-08-04T00:20:33.416Z,21.2
2017-08-04T00:21:36.268Z,21.2
2017-08-04T00:22:39.392Z,21.2
2017-08-04T00:23:41.851Z,21.1
2017-08-04T00:24:44.969Z,21.1
2017-08-04T00:25:47.415Z,21.1
2017-08-04T00:26:49.867Z,21
2017-08-04T00:27:53.005Z,21
2017-08-04T00:28:55.455Z,21
2017-08-04T00:29:58.265Z,21
2017-08-04T00:31:00.721Z,21
2017-08-04T00:32:03.534Z,20.9
2017-08-04T00:33:06.655Z,20.9
2017-08-04T00:34:09.129Z,20.9
2017-08-04T00:35:11.916Z,20.8
2017-08-04T00:36:14.369Z,20.8
2017-08-04T00:37:16.813Z,20.8
2017-08-04T00:38:19.602Z,20.8
2017-08-04T00:39:22.398Z,20.8
2017-08-04T00:40:24.857Z,20.8
2017-08-04T00:41:27.294Z,20.7
2017-08-04T00:42:30.757Z,20.7
2017-08-04T00:43:33.215Z,20.7
2017-08-04T00:44:36.007Z,20.7
2017-08-04T00:45:38.443Z,20.7
2017-08-04T00:46:41.238Z,20.7
2017-08-04T00:47:43.689Z,20.7
2017-08-04T00:48:46.469Z,20.7
2017-08-04T00:49:49.254Z,20.7
2017-08-04T00:50:51.714Z,20.7
2017-08-04T00:51:54.172Z,20.6
2017-08-04T00:52:56.974Z,20.6
2017-08-04T00:53:59.417Z,20.6
2017-08-04T00:55:03.229Z,20.6
2017-08-04T00:56:06.033Z,20.6
2017-08-04T00:57:08.487Z,20.6
2017-08-04T00:58:10.938Z,20.6
2017-08-04T00:59:13.388Z,20.6
2017-08-04T01:00:15.851Z,20.6
2017-08-04T01:01:18.635Z,20.6
2017-08-04T01:02:21.430Z,20.6
2017-08-04T01:03:24.209Z,20.6
2017-08-04T01:04:26.989Z,20.6
2017-08-04T01:05:29.459Z,20.6
2017-08-04T01:06:32.267Z,20.6
2017-08-04T01:07:34.744Z,20.6
2017-08-04T01:08:37.198Z,20.6
2017-08-04T01:09:39.995Z,20.6
2017-08-04T01:10:43.125Z,20.5
2017-08-04T01:11:46.258Z,20.5
2017-08-04T01:12:48.705Z,20.5
2017-08-04T01:13:51.158Z,20.5
2017-08-04T01:14:53.612Z,20.5
2017-08-04T01:15:56.746Z,20.5
2017-08-04T01:16:59.202Z,20.5
2017-08-04T01:18:02.327Z,20.5
2017-08-04T01:19:05.446Z,20.5
2017-08-04T01:20:08.570Z,20.5
2017-08-04T01:21:11.034Z,20.5
2017-08-04T01:22:13.821Z,20.5
2017-08-04T01:23:16.282Z,20.5
2017-08-04T01:24:18.731Z,20.5
2017-08-04T01:25:21.174Z,20.5
2017-08-04T01:26:23.626Z,20.5
2017-08-04T01:27:26.079Z,20.5
2017-08-04T01:28:28.529Z,20.5
2017-08-04T01:29:30.993Z,20.5
2017-08-04T01:30:33.445Z,20.4
2017-08-04T01:31:35.897Z,20.4
2017-08-04T01:32:38.347Z,20.4
2017-08-04T01:33:40.795Z,20.4
2017-08-04T01:34:43.234Z,20.4
2017-08-04T01:35:45.724Z,20.4
2017-08-04T01:36:48.188Z,20.4
2017-08-04T01:37:50.972Z,20.4
2017-08-04T01:38:53.430Z,20.3
2017-08-04T01:39:56.222Z,20.3
2017-08-04T01:40:58.676Z,20.3
2017-08-04T01:42:01.131Z,20.3
2017-08-04T01:43:03.950Z,20.3
2017-08-04T01:44:06.737Z,20.3
2017-08-04T01:45:09.534Z,20.3
2017-08-04T01:46:11.998Z,20.3
2017-08-04T01:47:15.128Z,20.3
2017-08-04T01:48:17.917Z,20.3
2017-08-04T01:49:20.701Z,20.3
2017-08-04T01:50:23.493Z,20.3
2017-08-04T01:51:25.942Z,20.2
2017-08-04T01:52:28.397Z,20.2
2017-08-04T01:53:30.832Z,20.2
2017-08-04T01:54:33.614Z,20.2
2017-08-04T01:55:36.768Z,20.2
2017-08-04T01:56:39.555Z,20.2
2017-08-04T01:57:42.339Z,20.2
2017-08-04T01:58:45.822Z,20.1
2017-08-04T01:59:48.665Z,20.1
2017-08-04T02:00:51.148Z,20.1
2017-08-04T02:01:53.598Z,20.1
2017-08-04T02:02:56.052Z,20.1
2017-08-04T02:03:58.523Z,20.1
2017-08-04T02:05:00.972Z,20.1
2017-08-04T02:06:04.447Z,20.1
2017-08-04T02:07:07.574Z,20.1
2017-08-04T02:08:10.346Z,20
2017-08-04T02:09:13.816Z,20.1
2017-08-04T02:10:16.620Z,20
2017-08-04T02:11:19.417Z,20
2017-08-04T02:12:22.207Z,20
2017-08-04T02:13:24.651Z,20
2017-08-04T02:14:27.452Z,20
2017-08-04T02:15:30.582Z,20
2017-08-04T02:16:33.026Z,20
2017-08-04T02:17:35.853Z,19.9
2017-08-04T02:18:38.308Z,19.9
2017-08-04T02:19:41.119Z,19.9
2017-08-04T02:20:43.587Z,19.9
2017-08-04T02:21:46.363Z,19.9
2017-08-04T02:22:49.502Z,19.9
2017-08-04T02:23:52.286Z,19.9
2017-08-04T02:24:54.749Z,19.9
2017-08-04T02:25:57.211Z,19.9
2017-08-04T02:26:59.657Z,19.9
2017-08-04T02:28:02.435Z,19.9
2017-08-04T02:29:04.892Z,19.9
2017-08-04T02:30:07.335Z,19.9
2017-08-04T02:31:09.825Z,19.8
2017-08-04T02:32:12.266Z,19.9
2017-08-04T02:33:14.726Z,19.8
2017-08-04T02:34:17.182Z,19.8
2017-08-04T02:35:19.659Z,19.8
2017-08-04T02:36:22.096Z,19.8
2017-08-04T02:37:24.886Z,19.8
2017-08-04T02:38:27.682Z,19.8
2017-08-04T02:39:30.140Z,19.8
2017-08-04T02:40:32.937Z,19.8
2017-08-04T02:41:35.381Z,19.8
2017-08-04T02:42:38.184Z,19.7
2017-08-04T02:43:40.633Z,19.7
2017-08-04T02:44:44.460Z,19.7
2017-08-04T02:45:47.258Z,19.7
2017-08-04T02:46:50.383Z,19.7
2017-08-04T02:47:53.175Z,19.7
2017-08-04T02:48:56.306Z,19.6
2017-08-04T02:49:58.761Z,19.6
2017-08-04T02:51:01.216Z,19.6
2017-08-04T02:52:04.739Z,19.6
2017-08-04T02:53:07.858Z,19.6
2017-08-04T02:54:10.670Z,19.6
2017-08-04T02:55:13.455Z,19.6
2017-08-04T02:56:15.902Z,19.6
2017-08-04T02:57:18.363Z,19.6
2017-08-04T02:58:21.142Z,19.6
2017-08-04T02:59:23.595Z,19.6
2017-08-04T03:00:26.408Z,19.6
2017-08-04T03:01:29.535Z,19.6
2017-08-04T03:02:31.991Z,19.6
2017-08-04T03:03:34.446Z,19.6
2017-08-04T03:04:37.233Z,19.6
2017-08-04T03:05:40.366Z,19.5
2017-08-04T03:06:42.812Z,19.5
2017-08-04T03:07:45.248Z,19.6
2017-08-04T03:08:47.704Z,19.5
2017-08-04T03:09:50.155Z,19.5
2017-08-04T03:10:53.272Z,19.6
2017-08-04T03:11:56.054Z,19.6
2017-08-04T03:12:58.507Z,19.6
2017-08-04T03:14:00.952Z,19.6
2017-08-04T03:15:03.734Z,19.6
2017-08-04T03:16:06.537Z,19.6
2017-08-04T03:17:08.990Z,19.6
2017-08-04T03:18:11.446Z,19.6
2017-08-04T03:19:13.904Z,19.6
2017-08-04T03:20:16.347Z,19.6
2017-08-04T03:21:19.473Z,19.6
2017-08-04T03:22:21.910Z,19.6
2017-08-04T03:23:24.699Z,19.7
2017-08-04T03:24:27.491Z,19.7
2017-08-04T03:25:29.949Z,19.7
2017-08-04T03:26:32.412Z,19.7
2017-08-04T03:27:35.226Z,19.7
2017-08-04T03:28:38.357Z,19.7
2017-08-04T03:29:40.805Z,19.7
2017-08-04T03:30:43.598Z,19.8
2017-08-04T03:31:46.399Z,19.8
2017-08-04T03:32:49.873Z,19.8
2017-08-04T03:33:52.337Z,19.8
2017-08-04T03:34:55.118Z,19.8
2017-08-04T03:35:57.561Z,19.8
2017-08-04T03:37:00.350Z,19.8
2017-08-04T03:38:03.814Z,19.8
2017-08-04T03:39:06.268Z,19.8
2017-08-04T03:40:09.058Z,19.8
2017-08-04T03:41:11.835Z,19.8
2017-08-04T03:42:14.315Z,19.8
2017-08-04T03:43:16.778Z,19.8
2017-08-04T03:44:19.578Z,19.8
2017-08-04T03:45:22.697Z,19.9
2017-08-04T03:46:25.146Z,19.9
2017-08-04T03:47:27.942Z,19.9
2017-08-04T03:48:30.726Z,19.9
2017-08-04T03:49:33.513Z,19.9
2017-08-04T03:50:35.956Z,19.9
2017-08-04T03:51:38.410Z,20
2017-08-04T03:52:40.852Z,20
2017-08-04T03:53:43.324Z,20
2017-08-04T03:54:46.100Z,20
2017-08-04T03:55:48.555Z,20
2017-08-04T03:56:50.997Z,20
2017-08-04T03:57:53.796Z,20
2017-08-04T03:58:56.254Z,20
2017-08-04T03:59:59.058Z,20
2017-08-04T04:01:01.509Z,20
2017-08-04T04:02:04.310Z,20
2017-08-04T04:03:08.123Z,20
2017-08-04T04:04:10.573Z,20
2017-08-04T04:05:13.359Z,20
2017-08-04T04:06:15.822Z,20
2017-08-04T04:07:18.303Z,20.1
2017-08-04T04:08:20.771Z,20.1
2017-08-04T04:09:23.232Z,20
2017-08-04T04:10:25.689Z,20.1
2017-08-04T04:11:28.496Z,20.1
2017-08-04T04:12:31.306Z,20
2017-08-04T04:13:34.424Z,20.1
2017-08-04T04:14:37.947Z,20.1
2017-08-04T04:15:40.398Z,20.1
2017-08-04T04:16:42.852Z,20.1
2017-08-04T04:17:45.633Z,20.1
2017-08-04T04:18:48.098Z,20.1
2017-08-04T04:19:50.878Z,20.1
2017-08-04T04:20:53.687Z,20.1
2017-08-04T04:21:56.129Z,20.1
2017-08-04T04:22:58.569Z,20.1
2017-08-04T04:24:01.355Z,20.1
2017-08-04T04:25:04.149Z,20.1
2017-08-04T04:26:06.923Z,20.1
2017-08-04T04:27:09.372Z,20.1
2017-08-04T04:28:11.814Z,20.1
2017-08-04T04:29:14.603Z,20.2
2017-08-04T04:30:17.054Z,20.2
2017-08-04T04:31:19.531Z,20.2
2017-08-04T04:32:21.998Z,20.2
2017-08-04T04:33:25.497Z,20.2
2017-08-04T04:34:28.280Z,20.2
2017-08-04T04:35:30.727Z,20.2
2017-08-04T04:36:33.180Z,20.2
2017-08-04T04:37:35.635Z,20.2
2017-08-04T04:38:38.093Z,20.3
2017-08-04T04:39:40.562Z,20.3
2017-08-04T04:40:43.005Z,20.3
2017-08-04T04:41:45.799Z,20.3
2017-08-04T04:42:48.261Z,20.3
2017-08-04T04:43:51.046Z,20.3
2017-08-04T04:44:53.824Z,20.3
2017-08-04T04:45:56.611Z,20.3
2017-08-04T04:46:59.057Z,20.3
2017-08-04T04:48:02.206Z,20.4
2017-08-04T04:49:05.006Z,20.4
2017-08-04T04:50:07.445Z,20.4
2017-08-04T04:51:10.251Z,20.4
2017-08-04T04:52:13.411Z,20.4
2017-08-04T04:53:16.199Z,20.4
2017-08-04T04:54:18.989Z,20.4
2017-08-04T04:55:21.438Z,20.4
2017-08-04T04:56:24.215Z,20.4
2017-08-04T04:57:27.347Z,20.4
2017-08-04T04:58:30.132Z,20.4
2017-08-04T04:59:32.575Z,20.4
2017-08-04T05:00:35.361Z,20.4
2017-08-04T05:01:37.820Z,20.4
2017-08-04T05:02:40.603Z,20.4
2017-08-04T05:03:43.059Z,20.4
2017-08-04T05:04:45.858Z,20.4
2017-08-04T05:05:48.662Z,20.4
2017-08-04T05:06:51.124Z,20.4
2017-08-04T05:07:53.915Z,20.4
2017-08-04T05:08:57.042Z,20.4
2017-08-04T05:10:00.177Z,20.4
2017-08-04T05:11:02.966Z,20.4
2017-08-04T05:12:05.411Z,20.4
2017-08-04T05:13:08.536Z,20.4
2017-08-04T05:14:11.341Z,20.4
2017-08-04T05:15:13.816Z,20.4
2017-08-04T05:16:16.613Z,20.4
2017-08-04T05:17:19.092Z,20.4
2017-08-04T05:18:21.565Z,20.4
2017-08-04T05:19:24.012Z,20.4
2017-08-04T05:20:26.462Z,20.4
2017-08-04T05:21:29.259Z,20.4
2017-08-04T05:22:31.709Z,20.5
2017-08-04T05:23:34.518Z,20.5
2017-08-04T05:24:36.972Z,20.5
2017-08-04T05:25:39.414Z,20.6
2017-08-04T05:26:41.870Z,20.7
2017-08-04T05:27:45.004Z,20.7
2017-08-04T05:28:47.796Z,20.7
2017-08-04T05:29:51.270Z,20.8
2017-08-04T05:30:54.052Z,20.8
2017-08-04T05:31:56.510Z,20.9
2017-08-04T05:32:59.321Z,20.9
2017-08-04T05:34:02.108Z,20.9
2017-08-04T05:35:04.912Z,21
2017-08-04T05:36:07.378Z,21.1
2017-08-04T05:37:09.825Z,21.1
2017-08-04T05:38:12.293Z,21.1
2017-08-04T05:39:14.785Z,21.2
2017-08-04T05:40:17.563Z,21.2
2017-08-04T05:41:20.010Z,21.2
2017-08-04T05:42:22.803Z,21.2
2017-08-04T05:43:25.243Z,21.2
2017-08-04T05:44:28.029Z,21.2
2017-08-04T05:45:30.492Z,21.2
2017-08-04T05:46:32.938Z,21.3
2017-08-04T05:47:36.063Z,21.2
2017-08-04T05:48:38.526Z,21.3
2017-08-04T05:49:41.327Z,21.3
2017-08-04T05:50:43.802Z,21.3
2017-08-04T05:51:46.324Z,21.4
2017-08-04T05:52:49.114Z,21.4
2017-08-04T05:53:51.570Z,21.4
2017-08-04T05:54:54.023Z,21.4
2017-08-04T05:55:56.807Z,21.4
2017-08-04T05:56:59.608Z,21.5
2017-08-04T05:58:02.052Z,21.5
2017-08-04T05:59:05.545Z,21.6
2017-08-04T06:00:08.002Z,21.6
2017-08-04T06:01:11.153Z,21.6
2017-08-04T06:02:13.950Z,21.7
2017-08-04T06:03:16.743Z,21.7
2017-08-04T06:04:19.180Z,21.7
2017-08-04T06:05:21.635Z,21.7
2017-08-04T06:06:24.090Z,21.8
2017-08-04T06:07:26.541Z,21.8
2017-08-04T06:08:28.988Z,21.8
2017-08-04T06:09:31.493Z,21.8
2017-08-04T06:10:34.285Z,21.8
2017-08-04T06:11:36.740Z,21.8
2017-08-04T06:12:39.194Z,21.8
2017-08-04T06:13:42.006Z,21.9
2017-08-04T06:14:44.457Z,21.9
2017-08-04T06:15:46.919Z,22
2017-08-04T06:16:49.370Z,22
2017-08-04T06:17:52.161Z,22.1
2017-08-04T06:18:54.949Z,22.1
2017-08-04T06:19:57.406Z,22.2
2017-08-04T06:20:59.849Z,22.2
2017-08-04T06:22:02.656Z,22.3
2017-08-04T06:23:06.488Z,22.3
2017-08-04T06:24:08.953Z,22.3
2017-08-04T06:25:11.752Z,22.3
2017-08-04T06:26:14.559Z,22.3
2017-08-04T06:27:17.359Z,22.4
2017-08-04T06:28:20.171Z,22.4
2017-08-04T06:29:22.614Z,22.4
2017-08-04T06:30:25.068Z,22.4
2017-08-04T06:31:27.515Z,22.4
2017-08-04T06:32:29.974Z,22.5
2017-08-04T06:33:32.423Z,22.5
2017-08-04T06:34:34.877Z,22.5
2017-08-04T06:35:37.677Z,22.6
2017-08-04T06:36:40.135Z,22.6
2017-08-04T06:37:42.588Z,22.7
2017-08-04T06:38:45.047Z,22.7
2017-08-04T06:39:47.495Z,22.7
2017-08-04T06:40:49.943Z,22.7
2017-08-04T06:41:52.736Z,22.7
2017-08-04T06:42:55.180Z,22.6
2017-08-04T06:43:57.651Z,22.6
2017-08-04T06:45:00.113Z,22.7
2017-08-04T06:46:02.573Z,22.7
2017-08-04T06:47:05.043Z,22.7
2017-08-04T06:48:07.502Z,22.6
2017-08-04T06:49:10.958Z,22.7
2017-08-04T06:50:13.423Z,22.7
2017-08-04T06:51:15.893Z,22.7
2017-08-04T06:52:18.383Z,22.7
2017-08-04T06:53:21.520Z,22.7
2017-08-04T06:54:25.000Z,22.7
2017-08-04T06:55:27.448Z,22.7
2017-08-04T06:56:29.913Z,22.8
2017-08-04T06:57:32.696Z,22.8
2017-08-04T06:58:35.148Z,22.8
2017-08-04T06:59:37.604Z,22.9
2017-08-04T07:00:40.402Z,22.9
2017-08-04T07:01:43.200Z,22.8
2017-08-04T07:02:45.655Z,22.8
2017-08-04T07:03:48.097Z,22.8
2017-08-04T07:04:50.899Z,22.8
2017-08-04T07:05:53.365Z,22.8
2017-08-04T07:06:55.830Z,22.9
2017-08-04T07:07:58.303Z,22.9
2017-08-04T07:09:00.775Z,22.9
2017-08-04T07:10:03.231Z,23
2017-08-04T07:11:06.385Z,23
2017-08-04T07:12:08.852Z,23
2017-08-04T07:13:11.309Z,23
2017-08-04T07:14:14.110Z,23.1
2017-08-04T07:15:16.576Z,23.1
2017-08-04T07:16:19.381Z,23.1
2017-08-04T07:17:21.837Z,23.1
2017-08-04T07:18:24.291Z,23.2
2017-08-04T07:19:26.741Z,23.1
2017-08-04T07:20:29.200Z,23.1
2017-08-04T07:21:32.014Z,23.1
2017-08-04T07:22:34.456Z,23.1
2017-08-04T07:23:36.935Z,23.1
2017-08-04T07:24:39.390Z,23.1
2017-08-04T07:25:42.201Z,23.1
2017-08-04T07:26:45.004Z,23.1
2017-08-04T07:27:47.462Z,23.1
2017-08-04T07:28:49.914Z,23.1
2017-08-04T07:29:52.706Z,23.1
2017-08-04T07:30:55.162Z,23.1
2017-08-04T07:31:57.951Z,23.1
2017-08-04T07:33:00.407Z,23.1
2017-08-04T07:34:03.206Z,23.2
2017-08-04T07:35:05.677Z,23.2
2017-08-04T07:36:08.819Z,23.3
2017-08-04T07:37:11.264Z,23.3
2017-08-04T07:38:13.716Z,23.3
2017-08-04T07:39:16.511Z,23.4
2017-08-04T07:40:18.964Z,23.4
2017-08-04T07:41:21.412Z,23.5
2017-08-04T07:42:23.869Z,23.6
2017-08-04T07:43:26.337Z,23.6
2017-08-04T07:44:28.786Z,23.7
2017-08-04T07:45:31.243Z,23.8
2017-08-04T07:46:33.713Z,23.8
2017-08-04T07:47:36.160Z,23.8
2017-08-04T07:48:38.947Z,23.8
2017-08-04T07:49:41.394Z,23.8
2017-08-04T07:50:44.194Z,23.8
2017-08-04T07:51:46.994Z,23.8
2017-08-04T07:52:50.464Z,23.8
2017-08-04T07:53:52.908Z,23.7
2017-08-04T07:54:55.363Z,23.7
2017-08-04T07:55:58.158Z,23.7
2017-08-04T07:57:00.614Z,23.7
2017-08-04T07:58:03.759Z,23.7
2017-08-04T07:59:06.211Z,23.6
2017-08-04T08:00:08.682Z,23.6
2017-08-04T08:01:11.518Z,23.6
2017-08-04T08:02:13.973Z,23.6
2017-08-04T08:03:16.427Z,23.7
2017-08-04T08:04:19.226Z,23.7
2017-08-04T08:05:21.691Z,23.7
2017-08-04T08:06:24.148Z,23.7
2017-08-04T08:07:26.598Z,23.8
2017-08-04T08:08:29.038Z,23.8
2017-08-04T08:09:31.859Z,23.8
2017-08-04T08:10:34.334Z,23.9
2017-08-04T08:11:37.147Z,23.9
2017-08-04T08:12:39.586Z,23.9
2017-08-04T08:13:42.069Z,23.9
2017-08-04T08:14:44.534Z,23.9
2017-08-04T08:15:47.340Z,23.9
2017-08-04T08:16:49.797Z,23.9
2017-08-04T08:17:52.238Z,23.9
2017-08-04T08:18:54.687Z,23.9
2017-08-04T08:19:57.147Z,23.9
2017-08-04T08:20:59.602Z,23.9
2017-08-04T08:22:02.050Z,23.9
2017-08-04T08:23:04.849Z,23.9
2017-08-04T08:24:07.293Z,23.9
2017-08-04T08:25:09.803Z,23.9
2017-08-04T08:26:12.259Z,23.9
2017-08-04T08:27:14.747Z,24
2017-08-04T08:28:17.523Z,24
2017-08-04T08:29:21.021Z,24
2017-08-04T08:30:23.816Z,24
2017-08-04T08:31:26.287Z,24
2017-08-04T08:32:28.736Z,24
2017-08-04T08:33:31.197Z,24
2017-08-04T08:34:34.000Z,24
2017-08-04T08:35:36.439Z,24
2017-08-04T08:36:39.232Z,24.1
2017-08-04T08:37:41.694Z,24.1
2017-08-04T08:38:44.148Z,24.1
2017-08-04T08:39:46.606Z,24.2
2017-08-04T08:40:49.063Z,24.2
2017-08-04T08:41:51.524Z,24.3
2017-08-04T08:42:53.981Z,24.3
2017-08-04T08:43:56.436Z,24.3
2017-08-04T08:44:59.219Z,24.4
2017-08-04T08:46:01.692Z,24.4
2017-08-04T08:47:04.484Z,24.4
2017-08-04T08:48:07.288Z,24.4
2017-08-04T08:49:09.737Z,24.4
2017-08-04T08:50:12.538Z,24.4
2017-08-04T08:51:14.995Z,24.4
2017-08-04T08:52:17.448Z,24.4
2017-08-04T08:53:19.903Z,24.4
2017-08-04T08:54:22.701Z,24.4
2017-08-04T08:55:25.486Z,24.4
2017-08-04T08:56:28.287Z,24.4
2017-08-04T08:57:31.426Z,24.4
2017-08-04T08:58:33.907Z,24.4
2017-08-04T08:59:36.419Z,24.4
2017-08-04T09:00:38.879Z,24.5
2017-08-04T09:01:41.330Z,24.5
2017-08-04T09:02:43.788Z,24.6
2017-08-04T09:03:46.581Z,24.6
2017-08-04T09:04:49.034Z,24.7
2017-08-04T09:05:51.494Z,24.7
2017-08-04T09:06:53.969Z,24.8
2017-08-04T09:07:56.759Z,24.8
2017-08-04T09:08:59.221Z,24.9
2017-08-04T09:10:01.685Z,25
2017-08-04T09:11:04.828Z,25
2017-08-04T09:12:07.625Z,25.1
2017-08-04T09:13:10.080Z,25.1
2017-08-04T09:14:12.529Z,25.2
2017-08-04T09:15:14.973Z,25.2
2017-08-04T09:16:17.434Z,25.3
2017-08-04T09:17:19.872Z,25.4
2017-08-04T09:18:22.328Z,25.5
2017-08-04T09:19:25.129Z,25.5
2017-08-04T09:20:27.925Z,25.6
2017-08-04T09:21:30.734Z,25.7
2017-08-04T09:22:33.189Z,25.8
2017-08-04T09:23:35.646Z,25.9
2017-08-04T09:24:38.121Z,26
2017-08-04T09:25:40.577Z,26
2017-08-04T09:26:43.712Z,26.1
2017-08-04T09:27:46.180Z,26.2
2017-08-04T09:28:48.641Z,26.3
2017-08-04T09:29:51.443Z,26.5
2017-08-04T09:30:53.902Z,26.6
2017-08-04T09:31:56.705Z,26.7
2017-08-04T09:32:59.166Z,26.8
2017-08-04T09:34:01.981Z,27
2017-08-04T09:35:04.798Z,27.1
2017-08-04T09:36:08.002Z,27.2
2017-08-04T09:37:10.459Z,27.3
2017-08-04T09:38:13.298Z,27.4
2017-08-04T09:39:15.750Z,27.5
2017-08-04T09:40:18.212Z,27.6
2017-08-04T09:41:20.708Z,27.6
2017-08-04T09:42:23.506Z,27.7
2017-08-04T09:43:25.967Z,27.7
2017-08-04T09:44:28.432Z,27.7
2017-08-04T09:45:30.883Z,27.8
2017-08-04T09:46:33.353Z,28
2017-08-04T09:47:35.827Z,28.1
2017-08-04T09:48:38.287Z,28.1
2017-08-04T09:49:41.093Z,28.1
2017-08-04T09:50:43.558Z,28
2017-08-04T09:51:46.009Z,27.9
2017-08-04T09:52:48.482Z,27.8
2017-08-04T09:53:50.950Z,27.7
2017-08-04T09:54:53.750Z,27.7
2017-08-04T09:55:56.211Z,27.7
2017-08-04T09:56:58.679Z,27.7
2017-08-04T09:58:01.145Z,27.8
2017-08-04T09:59:03.610Z,27.8
2017-08-04T10:00:06.090Z,27.8
2017-08-04T10:01:09.221Z,27.8
2017-08-04T10:02:12.031Z,27.7
2017-08-04T10:03:14.496Z,27.7
2017-08-04T10:04:16.956Z,27.6
2017-08-04T10:05:19.757Z,27.5
2017-08-04T10:06:22.562Z,27.4
2017-08-04T10:07:25.013Z,27.4
2017-08-04T10:08:27.812Z,27.4
2017-08-04T10:09:30.619Z,27.4
2017-08-04T10:10:33.091Z,27.5
2017-08-04T10:11:35.904Z,27.6
2017-08-04T10:12:38.712Z,27.7
2017-08-04T10:13:41.167Z,27.8
2017-08-04T10:14:44.289Z,27.9
2017-08-04T10:15:46.763Z,28
2017-08-04T10:16:49.223Z,28.1
2017-08-04T10:17:51.681Z,28.1
2017-08-04T10:18:54.156Z,28
2017-08-04T10:19:56.606Z,27.9
2017-08-04T10:20:59.406Z,27.7
2017-08-04T10:22:01.877Z,27.6
2017-08-04T10:23:04.999Z,27.5
2017-08-04T10:24:07.465Z,27.4
2017-08-04T10:25:10.255Z,27.3
2017-08-04T10:26:12.735Z,27.2
2017-08-04T10:27:15.217Z,27.2
2017-08-04T10:28:17.676Z,27.1
2017-08-04T10:29:20.135Z,27.1
2017-08-04T10:30:22.594Z,27.1
2017-08-04T10:31:25.045Z,27.2
2017-08-04T10:32:27.504Z,27.2
2017-08-04T10:33:29.977Z,27.2
2017-08-04T10:34:32.440Z,27.2
2017-08-04T10:35:34.898Z,27.3
2017-08-04T10:36:37.357Z,27.3
2017-08-04T10:37:40.159Z,27.4
2017-08-04T10:38:42.612Z,27.5
2017-08-04T10:39:45.069Z,27.5
2017-08-04T10:40:47.557Z,27.5
2017-08-04T10:41:50.023Z,27.5
2017-08-04T10:42:52.484Z,27.5
2017-08-04T10:43:54.957Z,27.6
2017-08-04T10:44:57.419Z,27.6
2017-08-04T10:45:59.874Z,27.6
2017-08-04T10:47:02.341Z,27.5
2017-08-04T10:48:04.790Z,27.4
2017-08-04T10:49:07.239Z,27.3
2017-08-04T10:50:10.040Z,27.2
2017-08-04T10:51:12.514Z,27.2
2017-08-04T10:52:14.973Z,27
2017-08-04T10:53:17.424Z,27
2017-08-04T10:54:20.233Z,27.1
2017-08-04T10:55:22.709Z,27.1
2017-08-04T10:56:25.183Z,27.1
2017-08-04T10:57:27.973Z,27.1
2017-08-04T10:58:30.428Z,27.1
2017-08-04T10:59:32.900Z,27.1
2017-08-04T11:00:35.361Z,27.2
2017-08-04T11:01:38.163Z,27.3
2017-08-04T11:02:40.956Z,27.3
2017-08-04T11:03:44.097Z,27.4
2017-08-04T11:04:46.909Z,27.4
2017-08-04T11:05:49.385Z,27.5
2017-08-04T11:06:52.167Z,27.7
2017-08-04T11:07:54.643Z,27.8
2017-08-04T11:08:57.098Z,28
2017-08-04T11:09:59.567Z,28.1
2017-08-04T11:11:02.701Z,28.2
2017-08-04T11:12:06.189Z,28.3
2017-08-04T11:13:08.982Z,28.4
2017-08-04T11:14:11.801Z,28.5
2017-08-04T11:15:14.617Z,28.6
2017-08-04T11:16:17.411Z,28.7
2017-08-04T11:17:19.871Z,28.8
2017-08-04T11:18:22.671Z,28.9
2017-08-04T11:19:25.474Z,29
2017-08-04T11:20:27.942Z,29
2017-08-04T11:21:30.729Z,29.1
2017-08-04T11:22:33.208Z,29.1
2017-08-04T11:23:35.650Z,29.1
2017-08-04T11:24:38.497Z,29.2
2017-08-04T11:25:42.003Z,29.2
2017-08-04T11:26:44.472Z,29.3
2017-08-04T11:27:46.947Z,29.4
2017-08-04T11:28:49.416Z,29.5
2017-08-04T11:29:51.874Z,29.6
2017-08-04T11:30:54.707Z,29.7
2017-08-04T11:31:57.169Z,29.8
2017-08-04T11:32:59.617Z,29.9
2017-08-04T11:34:02.428Z,29.9
2017-08-04T11:35:05.231Z,30
2017-08-04T11:36:07.687Z,30
2017-08-04T11:37:10.171Z,30.1
2017-08-04T11:38:13.673Z,30.1
2017-08-04T11:39:16.146Z,30.1
2017-08-04T11:40:18.607Z,30.1
2017-08-04T11:41:21.073Z,30.1
2017-08-04T11:42:23.533Z,30
2017-08-04T11:43:26.037Z,30
2017-08-04T11:44:28.502Z,29.9
2017-08-04T11:45:31.332Z,29.8
2017-08-04T11:46:34.532Z,29.7
2017-08-04T11:47:37.390Z,29.6
2017-08-04T11:48:39.895Z,29.6
2017-08-04T11:49:42.436Z,29.6
2017-08-04T11:50:45.660Z,29.6
2017-08-04T11:51:48.862Z,29.7
2017-08-04T11:52:51.369Z,29.7
2017-08-04T11:53:53.887Z,29.6
2017-08-04T11:54:56.436Z,29.5
2017-08-04T11:55:58.962Z,29.4
2017-08-04T11:57:01.469Z,29.4
2017-08-04T11:58:04.673Z,29.3
2017-08-04T11:59:07.868Z,29.3
2017-08-04T12:00:10.384Z,29.4
2017-08-04T12:01:12.907Z,29.4
2017-08-04T12:02:15.433Z,29.4
2017-08-04T12:03:18.270Z,29.5
2017-08-04T12:04:21.135Z,29.6
2017-08-04T12:05:23.982Z,29.6
2017-08-04T12:06:26.496Z,29.7
2017-08-04T12:07:29.009Z,29.7
2017-08-04T12:08:31.518Z,29.7
2017-08-04T12:09:34.015Z,29.7
2017-08-04T12:10:36.528Z,29.7
2017-08-04T12:11:39.058Z,29.6
2017-08-04T12:12:41.904Z,29.4
2017-08-04T12:13:44.394Z,29.3
2017-08-04T12:14:47.588Z,29.2
2017-08-04T12:15:50.786Z,29.1
2017-08-04T12:16:53.305Z,29
2017-08-04T12:17:56.149Z,29
2017-08-04T12:18:58.673Z,29
2017-08-04T12:20:01.178Z,28.9
2017-08-04T12:21:04.050Z,28.9
2017-08-04T12:22:06.558Z,28.9
2017-08-04T12:23:09.417Z,29
2017-08-04T12:24:12.610Z,29
2017-08-04T12:25:15.458Z,29.1
2017-08-04T12:26:17.979Z,29.1
2017-08-04T12:27:20.848Z,29.2
2017-08-04T12:28:23.361Z,29.2
2017-08-04T12:29:25.888Z,29.2
2017-08-04T12:30:29.072Z,29.2
2017-08-04T12:31:31.945Z,29.2
2017-08-04T12:32:34.453Z,29.2
2017-08-04T12:33:36.958Z,29.2
2017-08-04T12:34:39.794Z,29.1
2017-08-04T12:35:42.303Z,29.1
2017-08-04T12:36:44.811Z,29.1
2017-08-04T12:37:47.309Z,29
2017-08-04T12:38:49.822Z,29
2017-08-04T12:39:52.349Z,29
2017-08-04T12:40:55.182Z,29
2017-08-04T12:41:58.044Z,29.1
2017-08-04T12:43:00.553Z,29.1
2017-08-04T12:44:03.388Z,29.1
2017-08-04T12:45:05.901Z,29.2
2017-08-04T12:46:09.115Z,29.2
2017-08-04T12:47:11.961Z,29.2
2017-08-04T12:48:14.494Z,29.3
2017-08-04T12:49:17.347Z,29.3
2017-08-04T12:50:20.191Z,29.3
2017-08-04T12:51:22.700Z,29.4
2017-08-04T12:52:25.524Z,29.5
2017-08-04T12:53:28.362Z,29.6
2017-08-04T12:54:30.887Z,29.6
2017-08-04T12:55:34.067Z,29.6
2017-08-04T12:56:36.564Z,29.7
2017-08-04T12:57:39.080Z,29.7
2017-08-04T12:58:41.914Z,29.7
2017-08-04T12:59:44.422Z,29.8
2017-08-04T13:00:47.042Z,29.8
2017-08-04T13:01:49.940Z,29.8
2017-08-04T13:02:52.469Z,29.7
2017-08-04T13:03:57.021Z,29.7
2017-08-04T13:05:01.897Z,29.6
2017-08-04T13:06:06.526Z,29.5
2017-08-04T13:07:13.440Z,29.4
2017-08-04T13:08:18.577Z,29.3
2017-08-04T13:09:21.090Z,29.3
2017-08-04T13:10:24.615Z,29.2
2017-08-04T13:11:27.095Z,29.2
2017-08-04T13:12:30.297Z,29.1
2017-08-04T13:13:32.807Z,29
2017-08-04T13:14:35.331Z,28.9
2017-08-04T13:15:37.849Z,28.9
2017-08-04T13:16:40.368Z,28.9
2017-08-04T13:17:42.942Z,28.9
2017-08-04T13:18:45.815Z,28.9
2017-08-04T13:19:49.027Z,28.9
2017-08-04T13:20:51.610Z,28.9
2017-08-04T13:21:54.527Z,28.9
2017-08-04T13:22:57.045Z,28.9
2017-08-04T13:23:59.582Z,29
2017-08-04T13:25:02.808Z,29
2017-08-04T13:26:05.335Z,29.1
2017-08-04T13:27:07.856Z,29.1
2017-08-04T13:28:10.388Z,29.1
2017-08-04T13:29:12.883Z,29.1
2017-08-04T13:30:15.755Z,29.1
2017-08-04T13:31:18.623Z,29.1
2017-08-04T13:32:21.167Z,29.2
2017-08-04T13:33:23.677Z,29.2
2017-08-04T13:34:26.215Z,29.3
2017-08-04T13:35:28.735Z,29.3
2017-08-04T13:36:31.264Z,29.3
2017-08-04T13:37:33.789Z,29.3
2017-08-04T13:38:36.637Z,29.2
2017-08-04T13:39:39.162Z,29.2
2017-08-04T13:40:41.673Z,29.1
2017-08-04T13:41:44.217Z,29
2017-08-04T13:42:47.062Z,28.9
2017-08-04T13:43:49.594Z,28.8
2017-08-04T13:44:52.120Z,28.7
2017-08-04T13:45:54.648Z,28.7
2017-08-04T13:46:57.157Z,28.7
2017-08-04T13:48:00.009Z,28.8
2017-08-04T13:49:02.544Z,28.9
2017-08-04T13:50:05.422Z,29
2017-08-04T13:51:07.944Z,29.2
2017-08-04T13:52:11.474Z,29.3
2017-08-04T13:53:14.669Z,29.5
2017-08-04T13:54:17.211Z,29.6
2017-08-04T13:55:19.716Z,29.8
2017-08-04T13:56:22.911Z,30
2017-08-04T13:57:25.427Z,30.1
2017-08-04T13:58:28.291Z,30.1
2017-08-04T13:59:30.820Z,30.3